createdAt,value
2019-03-17T00:01:57.167Z,64.80
2019-03-17T00:04:15.683Z,64.80
2019-03-17T00:06:42.101Z,64.60
2019-03-17T00:09:08.653Z,64.50
2019-03-17T00:11:34.813Z,64.40
2019-03-17T00:14:00.971Z,64.20
2019-03-17T00:16:27.474Z,64.20
2019-03-17T00:18:53.723Z,64.10
2019-03-17T00:21:19.848Z,64.10
2019-03-17T00:23:46.011Z,64.10
2019-03-17T00:26:12.184Z,64.20
2019-03-17T00:28:38.352Z,64.10
2019-03-17T00:31:04.585Z,64.20
2019-03-17T00:33:30.746Z,64.40
2019-03-17T00:35:56.936Z,64.40
2019-03-17T00:38:23.093Z,64.50
2019-03-17T00:40:49.265Z,64.30
2019-03-17T00:43:15.420Z,64.60
2019-03-17T00:45:41.601Z,64.80
2019-03-17T00:48:07.774Z,64.90
2019-03-17T00:50:33.984Z,65.00
2019-03-17T00:53:00.139Z,65.10
2019-03-17T00:55:32.809Z,65.30
2019-03-17T00:57:59.780Z,65.40
2019-03-17T01:00:26.090Z,65.50
2019-03-17T01:02:52.396Z,65.50
2019-03-17T01:05:19.006Z,65.60
2019-03-17T01:07:45.247Z,65.60
2019-03-17T01:10:12.917Z,65.80
2019-03-17T01:12:39.059Z,66.00
2019-03-17T01:15:06.435Z,66.20
2019-03-17T01:17:32.564Z,66.20
2019-03-17T01:19:58.739Z,66.20
2019-03-17T01:22:24.899Z,66.30
2019-03-17T01:24:51.140Z,66.30
2019-03-17T01:27:17.333Z,66.40
2019-03-17T01:29:43.533Z,66.40
2019-03-17T01:32:09.661Z,66.40
2019-03-17T01:34:36.286Z,66.60
2019-03-17T01:37:02.443Z,66.60
2019-03-17T01:39:28.641Z,66.60
2019-03-17T01:41:55.087Z,66.70
2019-03-17T01:44:21.859Z,66.80
2019-03-17T01:46:48.006Z,66.80
2019-03-17T01:49:14.205Z,66.90
2019-03-17T01:51:40.399Z,66.90
2019-03-17T01:54:06.604Z,66.90
2019-03-17T01:56:32.820Z,67.10
2019-03-17T01:58:59.247Z,67.10
2019-03-17T02:01:25.442Z,67.20
2019-03-17T02:03:51.604Z,67.10
2019-03-17T02:06:17.780Z,67.20
2019-03-17T02:08:43.930Z,67.30
2019-03-17T02:11:10.100Z,67.40
2019-03-17T02:13:36.275Z,67.40
2019-03-17T02:16:02.532Z,67.50
2019-03-17T02:18:28.681Z,67.60
2019-03-17T02:20:55.260Z,67.60
2019-03-17T02:23:21.390Z,67.60
2019-03-17T02:25:47.582Z,67.80
2019-03-17T02:28:13.746Z,68.00
2019-03-17T02:30:40.074Z,68.10
2019-03-17T02:33:06.232Z,68.20
2019-03-17T02:35:39.581Z,68.30
2019-03-17T02:38:00.464Z,68.50
2019-03-17T02:40:26.609Z,68.60
2019-03-17T02:42:52.749Z,68.70
2019-03-17T02:45:18.933Z,68.80
2019-03-17T02:47:45.079Z,68.80
2019-03-17T02:50:11.335Z,68.80
2019-03-17T02:52:37.494Z,69.00
2019-03-17T02:55:07.767Z,68.80
2019-03-17T02:57:33.913Z,68.90
2019-03-17T03:00:00.050Z,69.00
2019-03-17T03:02:26.209Z,69.00
2019-03-17T03:04:52.375Z,69.20
2019-03-17T03:07:18.567Z,69.20
2019-03-17T03:09:44.746Z,69.40
2019-03-17T03:12:10.932Z,69.30
2019-03-17T03:14:37.152Z,69.50
2019-03-17T03:17:03.335Z,69.60
2019-03-17T03:19:31.102Z,69.60
2019-03-17T03:21:57.283Z,69.60
2019-03-17T03:24:23.434Z,69.50
2019-03-17T03:26:49.626Z,69.40
2019-03-17T03:29:15.773Z,69.40
2019-03-17T03:31:42.149Z,69.40
2019-03-17T03:34:08.306Z,69.40
2019-03-17T03:36:34.509Z,69.30
2019-03-17T03:39:00.658Z,69.20
2019-03-17T03:41:27.078Z,69.30
2019-03-17T03:43:53.232Z,69.10
2019-03-17T03:46:20.275Z,69.10
2019-03-17T03:48:46.427Z,69.10
2019-03-17T03:51:12.610Z,69.20
2019-03-17T03:53:38.750Z,69.30
2019-03-17T03:56:04.900Z,70.00
2019-03-17T03:58:31.062Z,69.40
2019-03-17T04:00:57.298Z,69.50
2019-03-17T04:03:23.443Z,69.50
2019-03-17T04:05:49.663Z,69.60
2019-03-17T04:08:15.864Z,69.60
2019-03-17T04:10:42.092Z,69.70
2019-03-17T04:13:13.788Z,69.80
2019-03-17T04:15:39.991Z,69.90
2019-03-17T04:18:06.219Z,70.00
2019-03-17T04:20:32.341Z,70.00
2019-03-17T04:22:58.510Z,70.00
2019-03-17T04:25:24.672Z,70.00
2019-03-17T04:27:50.833Z,70.00
2019-03-17T04:30:17.031Z,69.90
2019-03-17T04:32:43.186Z,69.90
2019-03-17T04:35:09.317Z,69.70
2019-03-17T04:37:35.527Z,69.70
2019-03-17T04:40:02.094Z,69.60
2019-03-17T04:42:28.266Z,69.50
2019-03-17T04:44:54.403Z,69.50
2019-03-17T04:47:20.576Z,69.40
2019-03-17T04:49:46.716Z,69.40
2019-03-17T04:52:12.886Z,69.50
2019-03-17T04:54:39.055Z,68.90
2019-03-17T04:57:05.232Z,69.40
2019-03-17T04:59:31.376Z,69.40
2019-03-17T05:01:57.593Z,69.50
2019-03-17T05:04:23.729Z,69.50
2019-03-17T05:06:52.833Z,69.60
2019-03-17T05:09:18.242Z,69.70
2019-03-17T05:11:44.770Z,69.80
2019-03-17T05:14:10.907Z,69.90
2019-03-17T05:16:37.061Z,69.80
2019-03-17T05:19:03.574Z,69.90
2019-03-17T05:21:29.728Z,70.00
2019-03-17T05:23:55.938Z,69.90
2019-03-17T05:26:22.077Z,70.00
2019-03-17T05:28:48.623Z,70.00
2019-03-17T05:31:14.880Z,70.10
2019-03-17T05:33:41.036Z,70.30
2019-03-17T05:36:07.186Z,70.70
2019-03-17T05:38:33.371Z,70.50
2019-03-17T05:40:59.554Z,70.60
2019-03-17T05:43:26.034Z,70.80
2019-03-17T05:45:52.491Z,70.90
2019-03-17T05:48:18.665Z,71.50
2019-03-17T05:50:44.841Z,71.70
2019-03-17T05:53:17.422Z,71.80
2019-03-17T05:55:43.582Z,72.00
2019-03-17T05:58:09.790Z,72.70
2019-03-17T06:00:36.321Z,71.90
2019-03-17T06:03:02.539Z,72.00
2019-03-17T06:05:28.677Z,72.10
2019-03-17T06:07:54.850Z,72.20
2019-03-17T06:10:21.387Z,72.30
2019-03-17T06:12:47.560Z,73.00
2019-03-17T06:15:13.695Z,73.50
2019-03-17T06:17:39.887Z,75.20
2019-03-17T06:20:10.563Z,72.90
2019-03-17T06:22:36.794Z,72.50
2019-03-17T06:25:06.338Z,72.50
2019-03-17T06:27:32.487Z,72.30
2019-03-17T06:29:58.691Z,72.30
2019-03-17T06:32:24.952Z,72.50
2019-03-17T06:34:51.110Z,72.30
2019-03-17T06:37:17.558Z,72.20
2019-03-17T06:39:43.723Z,73.00
2019-03-17T06:42:09.888Z,73.20
2019-03-17T06:44:36.078Z,76.50
2019-03-17T06:47:02.267Z,72.80
2019-03-17T06:49:28.434Z,82.90
2019-03-17T06:51:58.838Z,73.10
2019-03-17T06:54:22.643Z,73.70
2019-03-17T06:56:48.797Z,85.10
2019-03-17T06:59:17.460Z,72.50
2019-03-17T07:01:43.063Z,72.10
2019-03-17T07:04:09.223Z,72.40
2019-03-17T07:06:35.373Z,72.50
2019-03-17T07:09:01.681Z,73.90
2019-03-17T07:11:29.429Z,75.10
2019-03-17T07:13:55.591Z,67.00
2019-03-17T07:16:21.818Z,68.70
2019-03-17T07:18:47.969Z,68.10
2019-03-17T07:21:14.111Z,68.80
2019-03-17T07:23:40.295Z,67.50
2019-03-17T07:26:07.046Z,66.00
2019-03-17T07:28:33.245Z,64.80
2019-03-17T07:30:59.452Z,64.40
2019-03-17T07:33:25.624Z,63.60
2019-03-17T07:35:51.770Z,62.00
2019-03-17T07:38:17.950Z,60.80
2019-03-17T07:40:44.098Z,59.80
2019-03-17T07:43:10.274Z,59.50
2019-03-17T07:45:36.834Z,59.40
2019-03-17T07:48:03.010Z,59.60
2019-03-17T07:50:29.214Z,59.80
2019-03-17T07:52:55.382Z,59.60
2019-03-17T07:55:21.554Z,59.10
2019-03-17T07:57:47.692Z,58.30
2019-03-17T08:00:14.267Z,56.80
2019-03-17T08:02:40.464Z,55.40
2019-03-17T08:05:11.357Z,54.20
2019-03-17T08:07:37.676Z,53.50
2019-03-17T08:10:12.008Z,53.10
2019-03-17T08:12:39.325Z,51.10
2019-03-17T08:15:10.244Z,50.00
2019-03-17T08:17:36.552Z,48.70
2019-03-17T08:20:05.276Z,44.40
2019-03-17T08:22:31.434Z,44.50
2019-03-17T08:24:57.793Z,43.80
2019-03-17T08:27:23.970Z,41.20
2019-03-17T08:29:50.172Z,39.40
2019-03-17T08:32:16.377Z,38.00
2019-03-17T08:34:42.564Z,35.50
2019-03-17T08:37:08.978Z,36.00
2019-03-17T08:39:35.136Z,35.50
2019-03-17T08:42:01.292Z,33.00
2019-03-17T08:44:27.532Z,33.00
2019-03-17T08:46:53.663Z,33.60
2019-03-17T08:49:19.830Z,32.70
2019-03-17T08:51:46.024Z,32.30
2019-03-17T08:54:12.195Z,33.00
2019-03-17T08:56:38.373Z,33.20
2019-03-17T08:59:04.525Z,31.60
2019-03-17T09:01:30.714Z,32.20
2019-03-17T09:03:56.906Z,31.60
2019-03-17T09:06:23.078Z,30.30
2019-03-17T09:08:49.228Z,30.00
2019-03-17T09:11:15.388Z,30.00
2019-03-17T09:13:41.535Z,29.70
2019-03-17T09:16:07.734Z,29.70
2019-03-17T09:18:33.879Z,29.20
2019-03-17T09:21:00.051Z,29.00
2019-03-17T09:23:26.204Z,29.00
2019-03-17T09:25:52.386Z,29.20
2019-03-17T09:28:18.539Z,29.50
2019-03-17T09:30:44.790Z,29.20
2019-03-17T09:33:10.937Z,30.00
2019-03-17T09:35:37.180Z,30.40
2019-03-17T09:38:03.675Z,30.50
2019-03-17T09:40:29.950Z,30.00
2019-03-17T09:42:56.222Z,30.40
2019-03-17T09:45:22.706Z,28.60
2019-03-17T09:47:48.857Z,28.10
2019-03-17T09:50:19.100Z,28.30
2019-03-17T09:52:45.595Z,28.40
2019-03-17T09:55:11.785Z,28.70
2019-03-17T09:57:37.944Z,28.00
2019-03-17T10:00:14.933Z,29.20
2019-03-17T10:02:41.080Z,29.90
2019-03-17T10:05:08.778Z,31.00
2019-03-17T10:07:35.294Z,31.10
2019-03-17T10:10:02.171Z,30.10
2019-03-17T10:12:28.694Z,30.60
2019-03-17T10:14:54.836Z,29.00
2019-03-17T10:17:21.012Z,29.60
2019-03-17T10:19:47.183Z,28.70
2019-03-17T10:22:13.408Z,28.90
2019-03-17T10:24:40.148Z,29.70
2019-03-17T10:27:06.305Z,29.50
2019-03-17T10:29:32.452Z,29.30
2019-03-17T10:31:58.885Z,30.30
2019-03-17T10:34:25.300Z,30.10
2019-03-17T10:36:51.836Z,28.70
2019-03-17T10:39:20.492Z,28.20
2019-03-17T10:41:46.994Z,26.80
2019-03-17T10:44:13.175Z,27.30
2019-03-17T10:46:39.350Z,27.50
2019-03-17T10:49:05.524Z,26.60
2019-03-17T10:51:31.754Z,26.60
2019-03-17T10:53:57.910Z,27.50
2019-03-17T10:56:24.121Z,27.60
2019-03-17T10:58:50.269Z,27.60
2019-03-17T11:01:16.461Z,27.70
2019-03-17T11:03:42.630Z,27.90
2019-03-17T11:06:08.889Z,27.40
2019-03-17T11:08:37.090Z,27.50
2019-03-17T11:11:16.889Z,26.80
2019-03-17T11:13:43.366Z,26.70
2019-03-17T11:16:11.421Z,27.00
2019-03-17T11:18:40.885Z,26.30
2019-03-17T11:21:07.164Z,26.70
2019-03-17T11:23:33.355Z,26.60
2019-03-17T11:25:59.615Z,27.00
2019-03-17T11:28:25.838Z,27.20
2019-03-17T11:30:59.391Z,27.60
2019-03-17T11:33:25.760Z,28.00
2019-03-17T11:35:51.892Z,27.90
2019-03-17T11:38:18.077Z,28.10
2019-03-17T11:40:44.529Z,28.50
2019-03-17T11:43:10.730Z,28.50
2019-03-17T11:45:37.262Z,28.90
2019-03-17T11:48:09.295Z,28.10
2019-03-17T11:50:35.438Z,27.80
2019-03-17T11:53:04.226Z,28.50
2019-03-17T11:55:31.852Z,27.80
2019-03-17T11:58:01.380Z,27.40
2019-03-17T12:00:31.330Z,27.50
2019-03-17T12:02:57.513Z,27.60
2019-03-17T12:05:23.651Z,28.10
2019-03-17T12:07:49.834Z,27.30
2019-03-17T12:10:21.555Z,26.90
2019-03-17T12:12:48.001Z,27.10
2019-03-17T12:15:29.704Z,26.80
2019-03-17T12:17:55.870Z,27.20
2019-03-17T12:20:23.996Z,27.20
2019-03-17T12:22:50.184Z,27.20
2019-03-17T12:25:17.614Z,27.50
2019-03-17T12:27:43.825Z,27.50
2019-03-17T12:30:25.356Z,27.10
2019-03-17T12:32:52.824Z,27.20
2019-03-17T12:35:19.061Z,27.60
2019-03-17T12:37:45.457Z,27.60
2019-03-17T12:40:11.710Z,28.00
2019-03-17T12:42:38.130Z,28.60
2019-03-17T12:45:06.695Z,28.40
2019-03-17T12:47:32.838Z,28.40
2019-03-17T12:49:59.300Z,28.50
2019-03-17T12:52:25.490Z,28.40
2019-03-17T12:54:51.758Z,28.70
2019-03-17T12:57:18.005Z,28.30
2019-03-17T12:59:44.163Z,28.40
2019-03-17T13:02:10.664Z,28.20
2019-03-17T13:04:36.837Z,28.30
2019-03-17T13:07:03.395Z,28.40
2019-03-17T13:09:29.514Z,28.50
2019-03-17T13:11:55.758Z,28.10
2019-03-17T13:14:21.942Z,27.90
2019-03-17T13:16:55.256Z,28.10
2019-03-17T13:19:21.478Z,27.90
2019-03-17T13:21:48.021Z,28.10
2019-03-17T13:24:14.187Z,28.40
2019-03-17T13:26:40.361Z,28.40
2019-03-17T13:29:06.557Z,28.90
2019-03-17T13:31:39.174Z,28.50
2019-03-17T13:34:11.795Z,28.60
2019-03-17T13:36:37.983Z,28.90
2019-03-17T13:39:10.706Z,28.60
2019-03-17T13:41:36.889Z,28.20
2019-03-17T13:44:10.308Z,28.80
2019-03-17T13:46:36.457Z,28.80
2019-03-17T13:49:02.581Z,29.50
2019-03-17T13:51:28.755Z,29.30
2019-03-17T13:53:54.922Z,29.80
2019-03-17T13:56:21.161Z,29.90
2019-03-17T13:58:47.351Z,29.90
2019-03-17T14:01:13.886Z,29.30
2019-03-17T14:03:40.635Z,29.60
2019-03-17T14:06:06.777Z,29.60
2019-03-17T14:08:32.976Z,29.70
2019-03-17T14:10:59.123Z,30.40
2019-03-17T14:13:25.342Z,30.70
2019-03-17T14:15:51.543Z,31.00
2019-03-17T14:18:17.699Z,31.00
2019-03-17T14:20:44.270Z,31.00
2019-03-17T14:23:10.426Z,30.20
2019-03-17T14:25:37.017Z,30.00
2019-03-17T14:28:03.197Z,30.00
2019-03-17T14:30:29.488Z,30.80
2019-03-17T14:32:55.656Z,30.20
2019-03-17T14:35:22.171Z,30.50
2019-03-17T14:37:48.290Z,30.80
2019-03-17T14:40:15.482Z,30.60
2019-03-17T14:42:43.572Z,30.60
2019-03-17T14:45:14.532Z,31.30
2019-03-17T14:47:40.687Z,31.50
2019-03-17T14:50:13.196Z,31.60
2019-03-17T14:52:39.335Z,32.00
2019-03-17T14:55:06.305Z,32.00
2019-03-17T14:57:32.444Z,32.40
2019-03-17T14:59:58.611Z,32.70
2019-03-17T15:02:24.780Z,32.70
2019-03-17T15:04:50.966Z,32.80
2019-03-17T15:07:17.460Z,33.00
2019-03-17T15:09:43.617Z,33.40
2019-03-17T15:12:09.787Z,34.10
2019-03-17T15:14:36.368Z,34.90
2019-03-17T15:17:02.511Z,35.40
2019-03-17T15:19:28.679Z,35.80
2019-03-17T15:21:54.879Z,36.80
2019-03-17T15:24:21.396Z,36.50
2019-03-17T15:26:47.580Z,37.00
2019-03-17T15:29:13.756Z,37.50
2019-03-17T15:31:39.977Z,38.10
2019-03-17T15:34:06.119Z,38.60
2019-03-17T15:36:32.320Z,39.50
2019-03-17T15:38:58.490Z,40.30
2019-03-17T15:41:24.944Z,40.80
2019-03-17T15:43:51.073Z,41.40
2019-03-17T15:46:17.509Z,41.90
2019-03-17T15:48:43.950Z,42.40
2019-03-17T15:51:19.510Z,43.30
2019-03-17T15:53:38.215Z,43.60
2019-03-17T15:56:04.385Z,43.80
2019-03-17T16:00:57.788Z,43.90
2019-03-17T16:03:23.933Z,45.00
2019-03-17T16:05:50.096Z,45.60
2019-03-17T16:08:16.256Z,46.00
2019-03-17T16:10:42.430Z,46.10
2019-03-17T16:13:08.566Z,46.70
2019-03-17T16:15:34.747Z,46.70
2019-03-17T16:18:00.904Z,47.00
2019-03-17T16:20:27.339Z,47.70
2019-03-17T16:22:53.486Z,47.60
2019-03-17T16:25:24.996Z,48.30
2019-03-17T16:27:51.229Z,48.10
2019-03-17T16:30:22.242Z,48.60
2019-03-17T16:32:48.478Z,48.80
2019-03-17T16:35:14.843Z,49.20
2019-03-17T16:37:41.000Z,49.60
2019-03-17T16:40:38.270Z,50.10
2019-03-17T16:43:04.525Z,50.70
2019-03-17T16:45:30.703Z,51.10
2019-03-17T16:47:56.946Z,50.80
2019-03-17T16:50:23.323Z,51.90
2019-03-17T16:52:49.451Z,52.10
2019-03-17T16:55:15.913Z,52.30
2019-03-17T16:57:42.140Z,53.10
2019-03-17T17:00:19.122Z,53.00
2019-03-17T17:02:46.306Z,53.30
2019-03-17T17:05:14.754Z,53.30
2019-03-17T17:07:41.179Z,53.80
2019-03-17T17:10:22.028Z,54.30
2019-03-17T17:12:48.196Z,54.60
2019-03-17T17:15:27.188Z,55.20
2019-03-17T17:17:53.332Z,55.40
2019-03-17T17:20:24.412Z,55.80
2019-03-17T17:22:51.190Z,56.00
2019-03-17T17:25:17.677Z,56.10
2019-03-17T17:27:43.839Z,55.80
2019-03-17T17:30:13.577Z,56.10
2019-03-17T17:32:39.933Z,55.80
2019-03-17T17:35:06.315Z,55.80
2019-03-17T17:37:32.903Z,55.90
2019-03-17T17:39:59.070Z,56.00
2019-03-17T17:42:25.303Z,55.70
2019-03-17T17:44:51.441Z,55.70
2019-03-17T17:47:17.604Z,55.70
2019-03-17T17:49:43.807Z,55.60
2019-03-17T17:52:10.007Z,55.40
2019-03-17T17:54:36.143Z,55.40
2019-03-17T17:57:02.728Z,55.40
2019-03-17T17:59:28.887Z,55.30
2019-03-17T18:01:55.059Z,55.40
2019-03-17T18:04:21.523Z,55.30
2019-03-17T18:06:47.683Z,55.30
2019-03-17T18:09:13.837Z,55.40
2019-03-17T18:11:46.243Z,55.60
2019-03-17T18:14:12.374Z,55.60
2019-03-17T18:16:41.105Z,55.60
2019-03-17T18:19:06.587Z,55.60
2019-03-17T18:21:32.756Z,55.70
2019-03-17T18:23:59.285Z,55.80
2019-03-17T18:26:25.742Z,55.80
2019-03-17T18:28:51.879Z,55.70
2019-03-17T18:31:18.401Z,55.60
2019-03-17T18:33:44.560Z,55.60
2019-03-17T18:36:10.763Z,55.60
2019-03-17T18:38:37.159Z,55.60
2019-03-17T18:41:03.285Z,55.60
2019-03-17T18:43:29.467Z,55.40
2019-03-17T18:45:55.606Z,55.40
2019-03-17T18:48:22.139Z,55.40
2019-03-17T18:50:48.300Z,55.30
2019-03-17T18:53:14.480Z,55.30
2019-03-17T18:55:40.610Z,55.30
2019-03-17T18:58:06.815Z,55.20
2019-03-17T19:00:32.955Z,55.20
2019-03-17T19:02:59.143Z,55.30
2019-03-17T19:05:25.305Z,55.20
2019-03-17T19:07:51.506Z,55.30
2019-03-17T19:10:19.165Z,55.30
2019-03-17T19:12:46.402Z,55.20
2019-03-17T19:15:20.261Z,55.20
2019-03-17T19:17:46.640Z,55.20
2019-03-17T19:20:14.679Z,55.20
2019-03-17T19:22:40.902Z,55.20
2019-03-17T19:25:13.603Z,55.30
2019-03-17T19:27:39.786Z,55.20
2019-03-17T19:30:13.232Z,55.20
2019-03-17T19:32:39.568Z,55.20
2019-03-17T19:35:06.519Z,55.10
2019-03-17T19:37:32.692Z,55.10
2019-03-17T19:40:00.957Z,55.10
2019-03-17T19:42:26.938Z,55.10
2019-03-17T19:44:53.315Z,55.00
2019-03-17T19:47:19.447Z,55.00
2019-03-17T19:49:46.231Z,55.00
2019-03-17T19:52:12.719Z,54.90
2019-03-17T19:54:38.877Z,54.90
2019-03-17T19:57:05.026Z,55.00
2019-03-17T19:59:31.198Z,54.90
2019-03-17T20:01:57.354Z,55.00
2019-03-17T20:04:31.033Z,55.00
2019-03-17T20:06:51.612Z,55.00
2019-03-17T20:09:18.074Z,54.90
2019-03-17T20:11:44.240Z,55.00
2019-03-17T20:14:10.425Z,54.90
2019-03-17T20:16:36.580Z,55.00
2019-03-17T20:19:02.762Z,54.90
2019-03-17T20:21:29.017Z,54.90
2019-03-17T20:23:55.222Z,54.90
2019-03-17T20:26:21.342Z,54.90
2019-03-17T20:28:47.546Z,54.90
2019-03-17T20:31:13.995Z,54.90
2019-03-17T20:33:40.150Z,54.90
2019-03-17T20:36:06.305Z,54.90
2019-03-17T20:38:32.791Z,54.70
2019-03-17T20:40:59.232Z,54.80
2019-03-17T20:43:34.780Z,54.80
2019-03-17T20:45:53.478Z,54.80
2019-03-17T20:48:19.756Z,54.80
2019-03-17T20:50:46.317Z,54.90
2019-03-17T20:53:12.781Z,54.90
2019-03-17T20:55:38.926Z,54.90
2019-03-17T20:58:05.442Z,54.90
2019-03-17T21:00:31.636Z,54.90
2019-03-17T21:02:57.783Z,54.90
2019-03-17T21:05:24.253Z,54.90
2019-03-17T21:07:50.410Z,54.90
2019-03-17T21:10:16.600Z,54.90
2019-03-17T21:12:42.735Z,54.90
2019-03-17T21:15:11.495Z,55.00
2019-03-17T21:17:37.740Z,55.00
2019-03-17T21:20:09.749Z,54.90
2019-03-17T21:22:35.906Z,54.90
2019-03-17T21:25:04.462Z,54.90
2019-03-17T21:27:30.702Z,54.80
2019-03-17T21:29:56.865Z,54.90
2019-03-17T21:32:23.108Z,54.80
2019-03-17T21:34:49.284Z,54.70
2019-03-17T21:37:15.441Z,54.60
2019-03-17T21:39:41.595Z,54.60
2019-03-17T21:42:07.743Z,54.60
2019-03-17T21:44:33.976Z,54.70
2019-03-17T21:47:00.112Z,54.60
2019-03-17T21:49:26.274Z,54.60
2019-03-17T21:51:52.415Z,54.60
2019-03-17T21:54:18.618Z,54.70
2019-03-17T21:56:44.725Z,54.70
2019-03-17T21:59:10.895Z,54.80
2019-03-17T22:01:37.042Z,54.80
2019-03-17T22:04:03.293Z,54.70
2019-03-17T22:06:29.462Z,54.80
2019-03-17T22:08:55.636Z,54.80
2019-03-17T22:11:21.790Z,54.80
2019-03-17T22:13:48.348Z,54.80
2019-03-17T22:16:14.491Z,54.80
2019-03-17T22:18:40.647Z,54.80
2019-03-17T22:21:06.833Z,54.90
2019-03-17T22:23:32.969Z,54.90
2019-03-17T22:25:59.417Z,54.90
2019-03-17T22:28:25.549Z,54.40
2019-03-17T22:30:51.735Z,55.00
2019-03-17T22:33:17.907Z,55.00
2019-03-17T22:35:44.082Z,55.00
2019-03-17T22:38:10.244Z,55.10
2019-03-17T22:40:36.819Z,55.10
2019-03-17T22:43:03.020Z,55.00
2019-03-17T22:45:29.201Z,55.10
2019-03-17T22:47:55.352Z,55.10
2019-03-17T22:50:21.532Z,55.20
2019-03-17T22:52:47.655Z,55.20
2019-03-17T22:55:13.946Z,55.20
2019-03-17T22:57:40.090Z,55.30
2019-03-17T23:00:35.206Z,55.30
2019-03-17T23:03:01.344Z,55.30
2019-03-17T23:05:27.528Z,55.30
2019-03-17T23:07:53.675Z,55.30
2019-03-17T23:10:19.847Z,55.40
2019-03-17T23:12:46.336Z,55.40
2019-03-17T23:15:12.776Z,55.50
2019-03-17T23:17:39.054Z,55.60
2019-03-17T23:20:13.333Z,55.60
2019-03-17T23:22:39.846Z,55.60
2019-03-17T23:25:08.670Z,55.60
2019-03-17T23:27:35.086Z,55.60
2019-03-17T23:30:01.236Z,55.70
2019-03-17T23:32:27.461Z,55.70
2019-03-17T23:34:53.617Z,55.80
2019-03-17T23:37:19.778Z,56.00
2019-03-17T23:39:45.920Z,56.00
2019-03-17T23:42:12.096Z,56.10
2019-03-17T23:44:48.428Z,56.10
2019-03-17T23:47:06.318Z,56.50
2019-03-17T23:49:32.447Z,56.20
2019-03-17T23:51:58.633Z,56.20
2019-03-17T23:54:24.785Z,56.20
2019-03-17T23:56:50.945Z,56.70
2019-03-17T23:59:17.097Z,56.10
